• Join FlightAware (Why Join?)
  • Login
  • US Flag 
02:06AM EST


 

Airport Tracker/Info


-or-


 

Live Flight TrackerFlight Track Log ✈ EJA658 ✈ 02-May-2013 ✈ KBWI - KCLT

Flight Track Log - Related Links

Times and Time Zones

All times are in EDT time to prevent confusion due to time zone crossing. See the EJA658 flight status page for this flight to view local times or setup timezone preferences in your user account.

Time Position Orientation Groundspeed Altitude Reporting Facility
EDT Latitude Longitude Course Direction KTS MPH feet Rate Location/Type
08:14AM 39.1500 -76.6500 288° West 181 208 3,000  Level Potomac TRACON
08:15AM 39.1667 -76.7167 288° West 232 267 6,600 3,060 Climbing Potomac TRACON
08:16AM 39.2000 -76.8000 297° West 261 300 9,200 2,640 Climbing Potomac TRACON
08:17AM 39.2000 -76.9167 270° West 304 350 11,900 3,060 Climbing Potomac TRACON
08:18AM 39.2167 -77.0167 282° West 292 336 15,400 2,520 Climbing Potomac TRACON
08:19AM 39.2000 -77.1167 258° West 331 381 17,000 1,140 Climbing Potomac TRACON
08:20AM 39.1167 -77.2000 218° Southwest 356 410 17,700 1,500 Climbing Potomac TRACON
08:21AM 39.0333 -77.2500 205° Southwest 344 396 20,000 2,100 Climbing Potomac TRACON
08:22AM 38.9500 -77.3000 205° Southwest 356 410 21,700 1,020 Climbing Potomac TRACON
08:24AM 38.7769 -77.3839 201° Southwest 390 449 23,000 1,200 Climbing Washington Center
08:25AM 38.6742 -77.4317 200° South 398 458 25,300 1,920 Climbing Washington Center
08:26AM 38.5733 -77.4825 202° Southwest 398 458 26,900 780 Climbing Washington Center
08:27AM 38.4536 -77.5403 201° Southwest 405 466 27,000 300 Climbing Washington Center
08:28AM 38.3519 -77.6331 216° Southwest 434 499 27,600 780 Climbing Washington Center
08:29AM 38.2725 -77.7553 230° Southwest 434 499 28,600 960 Climbing Washington Center
08:30AM 38.1975 -77.8744 231° Southwest 439 505 29,600 660 Climbing Washington Center
08:31AM 38.1200 -77.9908 230° Southwest 439 505 30,000 180 Climbing Washington Center
08:32AM 38.0425 -78.1125 231° Southwest 444 511 30,000  Level Washington Center
08:33AM 37.9778 -78.2131 231° Southwest 433 498 30,000  Level Washington Center
08:34AM 37.8981 -78.3261 228° Southwest 426 490 30,000  Level Washington Center
08:35AM 37.8119 -78.4492 228° Southwest 432 497 30,000  Level Washington Center
08:36AM 37.7342 -78.5592 228° Southwest 426 490 30,000  Level Washington Center
08:37AM 37.6539 -78.6739 229° Southwest 426 490 30,000  Level Washington Center
08:38AM 37.5758 -78.7861 229° Southwest 426 490 30,000  Level Washington Center
08:39AM 37.5022 -78.8878 228° Southwest 432 497 30,000  Level Washington Center
08:40AM 37.4219 -78.9992 228° Southwest 432 497 30,000  Level Washington Center
08:41AM 37.3414 -79.1133 228° Southwest 432 497 30,000  Level Washington Center
08:42AM 37.2589 -79.2242 227° Southwest 432 497 30,000  Level Washington Center
08:43AM 37.1603 -79.3133 216° Southwest 432 497 30,000  Level Washington Center
08:44AM 37.0617 -79.3972 214° Southwest 432 497 30,000  Level Washington Center
08:45AM 36.9503 -79.4878 213° Southwest 432 497 30,000  Level Washington Center
08:46AM 36.8517 -79.5686 213° Southwest 432 497 30,000  Level Washington Center
08:47AM 36.7550 -79.6492 214° Southwest 432 497 30,000 -720 Level Washington Center
08:49AM 36.5811 -79.7861 212° Southwest 415 478 28,000 -1,560 Descending Atlanta Center
08:50AM 36.4797 -79.8689 213° Southwest 428 493 25,700 -2,520 Descending Atlanta Center
08:51AM 36.3681 -79.9622 214° Southwest 441 507 23,000 -1,860 Descending Atlanta Center
08:52AM 36.2725 -80.0392 213° Southwest 435 501 22,000 -1,080 Descending Atlanta Center
08:53AM 36.1772 -80.1211 215° Southwest 423 487 20,900 -1,500 Descending Atlanta Center
08:54AM 36.0858 -80.1975 214° Southwest 411 473 19,000 -1,800 Descending Atlanta Center
08:55AM 36.0064 -80.2656 215° Southwest 401 461 17,400 -1,980 Descending Atlanta Center
08:56AM 35.9111 -80.3519 216° Southwest 395 455 15,100 -2,280 Descending Atlanta Center
08:56AM 35.8767 -80.3817 215° Southwest 386 444 14,400 -1,920 Descending Atlanta Center
08:57AM 35.8236 -80.4275 215° Southwest 390 449 13,200 -1,380 Descending Atlanta Center
08:57AM 35.7931 -80.4519 213° Southwest 371 427 13,000 -720 Descending Atlanta Center
08:58AM 35.7483 -80.4897 214° Southwest 385 443 12,500 -1,320 Descending Atlanta Center
08:58AM 35.7097 -80.5222 214° Southwest 359 413 11,700 -1,500 Descending Atlanta Center
08:59AM 35.6667 -80.5572 213° Southwest 373 429 11,000 -1,380 Descending Atlanta Center
08:59AM 35.6281 -80.5922 216° Southwest 349 402 10,300 -1,140 Descending Atlanta Center
09:00AM 35.5872 -80.6244 213° Southwest 362 417 9,900 -300 Descending Atlanta Center
09:00AM 35.5486 -80.6567 214° Southwest 342 394 10,000  Climbing Atlanta Center
09:01AM 35.5078 -80.6917 215° Southwest 356 410 9,900 -120 Descending Atlanta Center
09:01AM 35.4711 -80.7211 213° Southwest 341 392 9,900  Level Atlanta Center
09:02AM 35.4281 -80.7558 213° Southwest 351 404 9,900 -120 Level Atlanta Center
09:02AM 35.3956 -80.7853 216° Southwest 331 381 9,800 -600 Descending Atlanta Center
09:03AM 35.3525 -80.8175 211° Southwest 329 379 9,300 -840 Descending Atlanta Center
09:03AM 35.3242 -80.8417 215° Southwest 273 314 9,000 -420 Descending Atlanta Center
09:04AM 35.2822 -80.8406 179° South 267 307 8,900 -120 Descending Atlanta Center
09:04AM 35.2381 -80.8297 169° South 260 299 8,900  Level Atlanta Center
09:05AM 35.2108 -80.8231 169° South 255 293 8,900 -840 Level Atlanta Center
09:05AM 35.1731 -80.8169 172° South 228 262 8,100 -1,560 Descending Atlanta Center
09:06AM 35.1083 -80.8067 173° South 221 254 6,300 -1,080 Descending Atlanta Center
09:07AM 35.0433 -80.7967 173° South 215 247 6,000 -660 Descending Atlanta Center
09:08AM 34.9886 -80.7861 171° South 207 238 5,000 -1,020 Descending Atlanta Center
09:09AM 34.9344 -80.7806 175° South 196 226 4,000 -540 Descending Atlanta Center
09:10AM 34.9192 -80.8394 252° West 201 231 4,000  Level Atlanta Center
09:11AM 34.9314 -80.9047 283° West 204 235 4,000  Level Atlanta Center
09:12AM 34.9775 -80.9183 346° North 190 219 4,000  Level Atlanta Center
09:13AM 35.0256 -80.9242 354° North 189 217 4,000 -480 Level Atlanta Center
09:14AM 35.0778 -80.9247 360° North 187 215 3,100 -900 Descending Atlanta Center
09:15AM 35.1281 -80.9306 355° North 180 207 2,200 -840 Descending Atlanta Center
09:16AM 35.1658 -80.9342 356° North 102 117 1,400 -660 Descending Atlanta Center
09:17AM 35.1950 -80.9356 358° North 108 124 900 -600 Descending Atlanta Center
09:19AM 35.2000 -80.9333 344° North  Level FlightAware Approximate
09:26AM 35.2137 -80.9491 344° North  Level Estimated